LFMNLFKF

Guest
Details From LFMN - Nice/Cote d'Azur
To LFKF - Figari Sud Corse
Flight Number -
Tags decoded
Created
Modified
Stats Distance 157 nm / 291 km
Max Altitude 0 ft / 0 m
Waypoints 4
Social Downloads 8
Likes 0
Share VATSIM

Download

Looking for another format? Having issues loading an existing format? Contact us
Advertisement - Login to hide

Notes

Requested: LFMN VARE5X VAREK W54 AJO AJO1G LFKF Unmatched points: VARE5X AJO1G

Route

LFMN VAREK W54 AJO LFKF

ID Type Via Altitude Latitude Longitude Leg Dist Tot Dist Heading (true) Name
O LFMN APT - 0 ft / 0 m 43.65798˚ 7.21536˚ - 0 nm - Nice/Cote d'Azur
VAREK FIX - 0 ft / 0 m 42.31306˚ 7.98056˚ 87 nm 87 nm 157° / 158° -
AJO VOR W54 (AWY-LO) 0 ft / 0 m 41.77053˚ 8.77467˚ 48 nm 135 nm 132° / 133° AJACCIO VOR-DME
O LFKF APT - 0 ft / 0 m 41.50206˚ 9.09696˚ 21 nm 157 nm 138° / 138° Figari Sud Corse

Altitude Profile

Advertisement - Login to hide

LFMN

Details ICAO LFMN (NCE)
Name Nice/Cote d'Azur
Region France
Timezone Unknown (UTC+0.0)
Stats Elevation 12 ft / 4 m (AMSL)
Location 43.657981° 7.215362°
Runways 2
Magnetic Variation 2.066° E

METAR

LFMN 240830Z 10009KT 9999 FEW026 BKN260 20/16 Q1018 NOSIG

Decode

TAF

TAF LFMN 240800Z 2409/2515 10010KT 9999 FEW030 TEMPO 2411/2415 16008KT PROB40 TEMPO 2422/2506 VRB03KT BKN006

Decode

Departure Runways

ID Width Length Bearing (true) Bearing (mag) Surface Threshold Offset Overrun Length
04L 148 ft / 45 m 8,427 ft / 2,569 m 44.85° 42.78° Asphalt 0 ft / 0 m 131 ft / 40 m
04R 148 ft / 45 m 9,720 ft / 2,963 m 44.60° 42.53° Asphalt 0 ft / 0 m 427 ft / 130 m
22L 148 ft / 45 m 9,720 ft / 2,963 m 224.62° 222.55° Asphalt 0 ft / 0 m 525 ft / 160 m
22R 148 ft / 45 m 8,427 ft / 2,569 m 224.87° 222.80° Asphalt 0 ft / 0 m 492 ft / 150 m

LFKF

Details ICAO LFKF (FSC)
Name Figari Sud Corse
Region France
Timezone Europe/Paris (UTC+2.0)
Stats Elevation 87 ft / 27 m (AMSL)
Location 41.502064° 9.096960°
Runways 1
Magnetic Variation 2.425° E

METAR

LFKF 240830Z AUTO 21008KT 180V240 CAVOK 23/16 Q1018 NOSIG

Decode

TAF

TAF LFKF 240800Z 2409/2509 VRB05KT 9999 FEW030 TEMPO 2409/2416 24012KT

Decode

Destination Runways

ID Width Length Bearing (true) Bearing (mag) Surface Threshold Offset Overrun Length
05 148 ft / 45 m 8,131 ft / 2,478 m 47.42° 45.00° Asphalt 0 ft / 0 m 0 ft / 0 m
23 148 ft / 45 m 8,131 ft / 2,478 m 227.44° 225.02° Asphalt 0 ft / 0 m 0 ft / 0 m

Approach Navaids

Runway Type Ident Frequency Range Bearing (true) Bearing (mag) Slope Elevation
23 Localiser GR 110.50 MHz 27 nm / 50 km 229.00° 226.58° - 87 ft / 27 m (AMSL)
23 Glidescope GR 110.50 MHz 27 nm / 50 km 229.00° 226.58° 3.50° 87 ft / 27 m (AMSL)
23 DME GR 110.50 MHz 18 nm / 33 km - - - 131 ft / 40 m (AMSL)

Popular Alternatives